createdAt,value
2018-11-07T00:01:54.374Z,10.30
2018-11-07T00:04:22.694Z,10.30
2018-11-07T00:06:51.026Z,10.30
2018-11-07T00:09:19.328Z,10.20
2018-11-07T00:11:47.605Z,10.20
2018-11-07T00:14:15.924Z,10.10
2018-11-07T00:16:44.217Z,10.00
2018-11-07T00:19:12.772Z,10.00
2018-11-07T00:21:41.070Z,9.90
2018-11-07T00:24:09.350Z,9.90
2018-11-07T00:26:37.674Z,9.90
2018-11-07T00:29:06.044Z,9.90
2018-11-07T00:31:34.362Z,9.90
2018-11-07T00:34:02.662Z,10.00
2018-11-07T00:36:30.985Z,10.00
2018-11-07T00:38:59.298Z,10.00
2018-11-07T00:41:27.586Z,10.10
2018-11-07T00:43:55.905Z,10.10
2018-11-07T00:46:24.209Z,10.20
2018-11-07T00:48:52.508Z,10.30
2018-11-07T00:51:20.797Z,10.30
2018-11-07T00:53:49.085Z,10.40
2018-11-07T00:56:17.360Z,10.40
2018-11-07T00:58:45.666Z,10.50
2018-11-07T01:01:13.984Z,10.50
2018-11-07T01:03:42.283Z,10.60
2018-11-07T01:06:10.585Z,10.60
2018-11-07T01:08:39.447Z,10.60
2018-11-07T01:11:07.866Z,10.70
2018-11-07T01:13:36.570Z,10.70
2018-11-07T01:16:05.284Z,10.70
2018-11-07T01:18:33.585Z,10.80
2018-11-07T01:21:08.444Z,10.80
2018-11-07T01:23:36.752Z,10.80
2018-11-07T01:26:05.108Z,10.80
2018-11-07T01:28:33.379Z,10.80
2018-11-07T01:31:01.728Z,10.80
2018-11-07T01:33:30.025Z,10.80
2018-11-07T01:35:58.312Z,10.80
2018-11-07T01:38:27.808Z,10.80
2018-11-07T01:40:56.134Z,10.80
2018-11-07T01:43:24.428Z,10.90
2018-11-07T01:45:52.745Z,10.90
2018-11-07T01:48:21.053Z,10.90
2018-11-07T01:50:49.402Z,10.90
2018-11-07T01:53:17.676Z,10.90
2018-11-07T01:55:45.989Z,11.00
2018-11-07T01:58:14.276Z,11.00
2018-11-07T02:00:42.578Z,11.00
2018-11-07T02:03:10.888Z,11.00
2018-11-07T02:05:39.166Z,11.00
2018-11-07T02:08:07.452Z,11.00
2018-11-07T02:10:35.744Z,11.00
2018-11-07T02:13:04.357Z,11.00
2018-11-07T02:15:32.677Z,11.00
2018-11-07T02:18:00.972Z,11.00
2018-11-07T02:20:29.272Z,11.00
2018-11-07T02:22:57.572Z,11.00
2018-11-07T02:25:25.878Z,11.00
2018-11-07T02:27:54.164Z,11.00
2018-11-07T02:30:22.461Z,11.00
2018-11-07T02:32:50.821Z,11.00
2018-11-07T02:35:19.106Z,11.10
2018-11-07T02:37:47.397Z,11.00
2018-11-07T02:40:15.707Z,11.00
2018-11-07T02:42:43.998Z,11.10
2018-11-07T02:45:12.309Z,11.10
2018-11-07T02:47:40.610Z,11.10
2018-11-07T02:50:09.804Z,11.10
2018-11-07T02:52:38.093Z,11.10
2018-11-07T02:55:06.474Z,11.10
2018-11-07T02:57:34.745Z,11.10
2018-11-07T03:00:03.071Z,11.10
2018-11-07T03:02:31.365Z,11.10
2018-11-07T03:04:59.661Z,11.10
2018-11-07T03:07:27.975Z,11.10
2018-11-07T03:09:56.294Z,11.10
2018-11-07T03:12:24.554Z,11.10
2018-11-07T03:14:52.849Z,11.10
2018-11-07T03:17:21.161Z,11.10
2018-11-07T03:19:49.454Z,11.10
2018-11-07T03:22:17.742Z,11.10
2018-11-07T03:24:46.085Z,11.10
2018-11-07T03:27:14.377Z,11.00
2018-11-07T03:29:42.660Z,10.90
2018-11-07T03:32:10.964Z,10.90
2018-11-07T03:34:39.255Z,10.90
2018-11-07T03:37:07.541Z,10.90
2018-11-07T03:39:35.837Z,10.90
2018-11-07T03:42:04.176Z,10.80
2018-11-07T03:44:32.455Z,10.90
2018-11-07T03:47:00.773Z,10.90
2018-11-07T03:49:29.065Z,10.90
2018-11-07T03:51:57.390Z,10.90
2018-11-07T03:54:25.691Z,10.90
2018-11-07T03:56:53.988Z,10.90
2018-11-07T03:59:22.294Z,10.80
2018-11-07T04:01:50.607Z,10.80
2018-11-07T04:04:18.907Z,10.70
2018-11-07T04:06:47.207Z,10.60
2018-11-07T04:09:15.493Z,10.50
2018-11-07T04:11:44.459Z,10.40
2018-11-07T04:14:12.787Z,10.30
2018-11-07T04:16:41.057Z,10.20
2018-11-07T04:19:09.614Z,10.20
2018-11-07T04:21:38.511Z,10.10
2018-11-07T04:24:06.787Z,10.10
2018-11-07T04:26:36.392Z,10.00
2018-11-07T04:29:04.778Z,10.00
2018-11-07T04:31:33.850Z,10.00
2018-11-07T04:34:02.169Z,10.00
2018-11-07T04:36:30.463Z,9.90
2018-11-07T04:38:58.758Z,9.90
2018-11-07T04:41:27.039Z,9.80
2018-11-07T04:43:55.339Z,9.80
2018-11-07T04:46:23.611Z,9.70
2018-11-07T04:48:51.909Z,9.70
2018-11-07T04:51:20.211Z,9.70
2018-11-07T04:53:48.529Z,9.60
2018-11-07T04:56:16.817Z,9.60
2018-11-07T04:58:45.144Z,9.60
2018-11-07T05:01:13.434Z,9.60
2018-11-07T05:03:41.839Z,9.70
2018-11-07T05:06:10.140Z,9.70
2018-11-07T05:08:38.442Z,9.70
2018-11-07T05:11:06.726Z,9.70
2018-11-07T05:13:35.040Z,9.70
2018-11-07T05:16:03.337Z,9.60
2018-11-07T05:18:31.759Z,9.60
2018-11-07T05:21:00.057Z,9.60
2018-11-07T05:23:28.383Z,9.60
2018-11-07T05:25:56.735Z,9.60
2018-11-07T05:28:25.047Z,9.60
2018-11-07T05:30:53.339Z,9.60
2018-11-07T05:33:21.641Z,9.60
2018-11-07T05:35:49.945Z,9.50
2018-11-07T05:38:18.271Z,9.50
2018-11-07T05:40:46.560Z,9.50
2018-11-07T05:43:14.859Z,9.50
2018-11-07T05:45:43.135Z,9.50
2018-11-07T05:48:11.425Z,9.40
2018-11-07T05:50:39.719Z,9.40
2018-11-07T05:53:07.995Z,9.30
2018-11-07T05:55:36.309Z,9.20
2018-11-07T05:58:04.755Z,9.20
2018-11-07T06:00:33.084Z,9.20
2018-11-07T06:03:01.355Z,9.20
2018-11-07T06:05:29.689Z,9.20
2018-11-07T06:07:57.967Z,9.30
2018-11-07T06:10:26.246Z,9.30
2018-11-07T06:12:54.538Z,9.30
2018-11-07T06:15:22.829Z,9.20
2018-11-07T06:17:51.123Z,9.20
2018-11-07T06:20:19.419Z,9.10
2018-11-07T06:22:47.717Z,9.10
2018-11-07T06:25:16.017Z,9.00
2018-11-07T06:27:44.316Z,9.00
2018-11-07T06:30:13.371Z,9.00
2018-11-07T06:32:42.184Z,8.90
2018-11-07T06:35:11.215Z,8.90
2018-11-07T06:37:39.563Z,8.80
2018-11-07T06:40:09.695Z,8.70
2018-11-07T06:42:38.304Z,8.70
2018-11-07T06:45:07.153Z,8.70
2018-11-07T06:47:35.445Z,8.70
2018-11-07T06:50:04.031Z,8.60
2018-11-07T06:52:32.306Z,8.60
2018-11-07T06:55:00.584Z,8.60
2018-11-07T06:57:28.868Z,8.70
2018-11-07T06:59:57.274Z,8.70
2018-11-07T07:02:25.815Z,8.70
2018-11-07T07:04:54.119Z,8.70
2018-11-07T07:07:22.425Z,8.70
2018-11-07T07:09:50.727Z,8.70
2018-11-07T07:12:19.021Z,8.70
2018-11-07T07:14:47.325Z,8.80
2018-11-07T07:17:15.620Z,8.80
2018-11-07T07:19:43.996Z,8.90
2018-11-07T07:22:12.282Z,9.00
2018-11-07T07:24:40.579Z,9.10
2018-11-07T07:27:10.555Z,9.20
2018-11-07T07:29:38.880Z,9.30
2018-11-07T07:32:07.175Z,9.40
2018-11-07T07:34:35.493Z,9.60
2018-11-07T07:37:03.830Z,9.70
2018-11-07T07:39:32.123Z,9.80
2018-11-07T07:42:00.439Z,9.90
2018-11-07T07:44:28.741Z,10.00
2018-11-07T07:46:57.049Z,10.20
2018-11-07T07:49:25.449Z,10.30
2018-11-07T07:51:53.661Z,10.40
2018-11-07T07:54:21.958Z,10.50
2018-11-07T07:56:50.301Z,10.60
2018-11-07T07:59:18.626Z,10.70
2018-11-07T08:01:46.956Z,10.80
2018-11-07T08:04:15.291Z,10.80
2018-11-07T08:06:43.604Z,10.80
2018-11-07T08:09:13.366Z,10.80
2018-11-07T08:11:42.087Z,10.70
2018-11-07T08:14:10.728Z,10.70
2018-11-07T08:16:39.028Z,10.60
2018-11-07T08:19:08.241Z,10.60
2018-11-07T08:21:36.561Z,10.60
2018-11-07T08:24:04.885Z,10.50
2018-11-07T08:26:33.225Z,10.50
2018-11-07T08:29:01.607Z,10.40
2018-11-07T08:31:30.178Z,10.40
2018-11-07T08:33:58.862Z,10.40
2018-11-07T08:36:27.240Z,10.40
2018-11-07T08:38:55.546Z,10.50
2018-11-07T08:41:23.818Z,10.50
2018-11-07T08:43:52.129Z,10.50
2018-11-07T08:46:20.579Z,10.60
2018-11-07T08:48:48.890Z,10.60
2018-11-07T08:51:17.451Z,10.60
2018-11-07T08:53:45.755Z,10.70
2018-11-07T08:56:14.046Z,10.80
2018-11-07T08:58:42.452Z,10.90
2018-11-07T09:01:10.821Z,11.00
2018-11-07T09:03:39.077Z,11.10
2018-11-07T09:06:07.394Z,11.20
2018-11-07T09:08:35.686Z,11.20
2018-11-07T09:11:04.010Z,11.30
2018-11-07T09:13:32.302Z,11.40
2018-11-07T09:16:00.590Z,11.50
2018-11-07T09:18:28.900Z,11.60
2018-11-07T09:20:57.204Z,11.70
2018-11-07T09:23:25.486Z,11.80
2018-11-07T09:25:53.812Z,11.90
2018-11-07T09:28:22.114Z,12.00
2018-11-07T09:30:57.196Z,12.10
2018-11-07T09:33:25.500Z,12.20
2018-11-07T09:35:53.813Z,12.30
2018-11-07T09:38:22.125Z,12.40
2018-11-07T09:40:50.406Z,12.40
2018-11-07T09:43:18.704Z,12.60
2018-11-07T09:45:46.979Z,12.60
2018-11-07T09:48:15.318Z,12.80
2018-11-07T09:50:43.584Z,12.90
2018-11-07T09:53:11.928Z,13.10
2018-11-07T09:55:40.206Z,13.40
2018-11-07T09:58:08.518Z,13.60
2018-11-07T10:00:36.826Z,13.80
2018-11-07T10:03:06.407Z,13.90
2018-11-07T10:05:34.732Z,14.00
2018-11-07T10:08:02.992Z,14.20
2018-11-07T10:10:31.322Z,14.30
2018-11-07T10:12:59.604Z,14.40
2018-11-07T10:15:27.898Z,14.60
2018-11-07T10:17:56.190Z,14.80
2018-11-07T10:20:25.057Z,14.90
2018-11-07T10:22:53.342Z,14.90
2018-11-07T10:25:21.646Z,15.00
2018-11-07T10:27:50.176Z,15.00
2018-11-07T10:30:19.663Z,15.00
2018-11-07T10:32:48.984Z,15.00
2018-11-07T10:35:17.363Z,15.10
2018-11-07T10:37:45.683Z,15.20
2018-11-07T10:40:16.004Z,15.30
2018-11-07T10:42:44.786Z,15.30
2018-11-07T10:45:13.272Z,15.20
2018-11-07T10:47:42.060Z,15.20
2018-11-07T10:50:11.806Z,15.20
2018-11-07T10:52:41.089Z,15.30
2018-11-07T10:55:10.301Z,15.30
2018-11-07T10:57:38.613Z,15.20
2018-11-07T11:00:13.888Z,15.20
2018-11-07T11:02:48.538Z,15.20
2018-11-07T11:05:18.225Z,15.10
2018-11-07T11:07:46.456Z,15.20
2018-11-07T11:10:14.779Z,15.30
2018-11-07T11:12:44.240Z,15.30
2018-11-07T11:15:12.586Z,15.30
2018-11-07T11:17:41.096Z,15.20
2018-11-07T11:20:12.461Z,15.20
2018-11-07T11:22:40.779Z,15.30
2018-11-07T11:25:09.080Z,15.30
2018-11-07T11:27:37.559Z,15.40
2018-11-07T11:30:06.908Z,15.40
2018-11-07T11:32:35.209Z,15.50
2018-11-07T11:35:03.789Z,15.60
2018-11-07T11:37:31.919Z,15.70
2018-11-07T11:40:00.198Z,15.80
2018-11-07T11:42:28.474Z,15.90
2018-11-07T11:44:56.806Z,16.00
2018-11-07T11:47:25.098Z,16.00
2018-11-07T11:49:53.467Z,16.00
2018-11-07T11:52:21.766Z,16.00
2018-11-07T11:54:50.041Z,16.20
2018-11-07T11:57:18.390Z,16.30
2018-11-07T11:59:46.903Z,16.30
2018-11-07T12:02:15.030Z,16.40
2018-11-07T12:04:43.277Z,16.40
2018-11-07T12:07:11.582Z,16.40
2018-11-07T12:09:40.667Z,16.40
2018-11-07T12:12:09.021Z,16.40
2018-11-07T12:14:37.638Z,16.30
2018-11-07T12:17:05.933Z,16.20
2018-11-07T12:19:34.237Z,16.20
2018-11-07T12:22:02.521Z,16.10
2018-11-07T12:24:30.863Z,16.10
2018-11-07T12:26:59.509Z,16.10
2018-11-07T12:29:27.802Z,16.10
2018-11-07T12:31:56.094Z,16.20
2018-11-07T12:34:24.395Z,16.10
2018-11-07T12:36:59.310Z,16.20
2018-11-07T12:39:27.617Z,16.20
2018-11-07T12:41:55.969Z,16.30
2018-11-07T12:44:24.339Z,16.30
2018-11-07T12:46:52.620Z,16.30
2018-11-07T12:49:20.901Z,16.30
2018-11-07T12:51:49.192Z,16.40
2018-11-07T12:54:17.489Z,16.40
2018-11-07T12:56:45.804Z,16.40
2018-11-07T12:59:14.104Z,16.40
2018-11-07T13:01:42.424Z,16.30
2018-11-07T13:04:10.742Z,16.30
2018-11-07T13:06:39.050Z,16.30
2018-11-07T13:09:09.249Z,16.40
2018-11-07T13:11:37.931Z,16.50
2018-11-07T13:14:06.226Z,16.50
2018-11-07T13:16:34.778Z,16.60
2018-11-07T13:19:03.179Z,16.60
2018-11-07T13:21:32.260Z,16.60
2018-11-07T13:24:00.574Z,16.60
2018-11-07T13:26:28.895Z,16.60
2018-11-07T13:28:57.233Z,16.50
2018-11-07T13:31:25.521Z,16.50
2018-11-07T13:33:53.817Z,16.40
2018-11-07T13:36:22.116Z,16.40
2018-11-07T13:38:50.594Z,16.30
2018-11-07T13:41:18.689Z,16.20
2018-11-07T13:43:46.989Z,16.20
2018-11-07T13:46:15.279Z,16.10
2018-11-07T13:48:43.651Z,16.10
2018-11-07T13:51:11.947Z,16.00
2018-11-07T13:53:40.225Z,16.00
2018-11-07T13:56:08.568Z,15.90
2018-11-07T13:58:37.232Z,15.90
2018-11-07T14:01:05.609Z,15.80
2018-11-07T14:03:33.971Z,15.80
2018-11-07T14:06:02.273Z,15.80
2018-11-07T14:08:30.691Z,15.80
2018-11-07T14:10:59.073Z,15.70
2018-11-07T14:13:27.584Z,15.70
2018-11-07T14:15:55.923Z,15.60
2018-11-07T14:18:24.231Z,15.50
2018-11-07T14:20:52.580Z,15.40
2018-11-07T14:23:21.215Z,15.30
2018-11-07T14:25:49.543Z,15.20
2018-11-07T14:28:18.141Z,15.20
2018-11-07T14:30:46.325Z,15.10
2018-11-07T14:33:15.025Z,15.00
2018-11-07T14:35:43.402Z,14.90
2018-11-07T14:38:11.724Z,14.90
2018-11-07T14:40:40.119Z,14.80
2018-11-07T14:43:08.579Z,14.70
2018-11-07T14:45:37.093Z,14.60
2018-11-07T14:48:05.719Z,14.50
2018-11-07T14:50:34.147Z,14.40
2018-11-07T14:53:09.063Z,14.40
2018-11-07T14:55:37.405Z,14.30
2018-11-07T14:58:05.770Z,14.30
2018-11-07T15:00:34.092Z,14.20
2018-11-07T15:03:02.411Z,14.20
2018-11-07T15:05:30.752Z,14.20
2018-11-07T15:07:59.043Z,14.10
2018-11-07T15:10:27.365Z,14.10
2018-11-07T15:12:55.684Z,14.10
2018-11-07T15:15:23.994Z,14.10
2018-11-07T15:17:52.429Z,14.00
2018-11-07T15:20:20.747Z,14.00
2018-11-07T15:22:49.062Z,13.90
2018-11-07T15:25:17.793Z,13.90
2018-11-07T15:27:46.884Z,13.80
2018-11-07T15:30:16.112Z,13.80
2018-11-07T15:32:45.012Z,13.70
2018-11-07T15:35:13.829Z,13.70
2018-11-07T15:37:42.774Z,13.70
2018-11-07T15:40:13.816Z,13.60
2018-11-07T15:42:43.947Z,13.60
2018-11-07T15:45:14.188Z,13.60
2018-11-07T15:47:42.872Z,13.50
2018-11-07T15:50:16.583Z,13.60
2018-11-07T15:52:45.896Z,13.50
2018-11-07T15:55:14.190Z,13.50
2018-11-07T15:57:42.531Z,13.50
2018-11-07T16:00:12.962Z,13.50
2018-11-07T16:02:41.667Z,13.50
2018-11-07T16:05:12.017Z,13.50
2018-11-07T16:07:40.325Z,13.40
2018-11-07T16:10:10.306Z,13.40
2018-11-07T16:12:39.319Z,13.40
2018-11-07T16:15:09.166Z,13.30
2018-11-07T16:17:37.823Z,13.30
2018-11-07T16:20:09.267Z,13.30
2018-11-07T16:22:37.597Z,13.30
2018-11-07T16:25:06.435Z,13.30
2018-11-07T16:27:35.033Z,13.20
2018-11-07T16:30:03.729Z,13.20
2018-11-07T16:32:32.297Z,13.10
2018-11-07T16:35:00.639Z,13.00
2018-11-07T16:37:28.987Z,12.90
2018-11-07T16:39:57.326Z,12.80
2018-11-07T16:42:25.695Z,12.70
2018-11-07T16:45:00.569Z,12.70
2018-11-07T16:47:29.330Z,12.60
2018-11-07T16:49:58.641Z,12.40
2018-11-07T16:52:27.014Z,12.40
2018-11-07T16:54:55.277Z,12.30
2018-11-07T16:57:23.599Z,12.20
2018-11-07T16:59:51.949Z,12.20
2018-11-07T17:02:20.310Z,12.10
2018-11-07T17:04:48.688Z,12.00
2018-11-07T17:07:17.069Z,12.00
2018-11-07T17:09:45.364Z,11.90
2018-11-07T17:12:13.862Z,11.90
2018-11-07T17:14:42.172Z,11.90
2018-11-07T17:17:10.569Z,11.90
2018-11-07T17:19:38.902Z,11.90
2018-11-07T17:22:07.251Z,11.80
2018-11-07T17:24:35.791Z,11.80
2018-11-07T17:27:03.985Z,11.80
2018-11-07T17:29:32.358Z,11.80
2018-11-07T17:32:00.788Z,11.70
2018-11-07T17:34:29.208Z,11.70
2018-11-07T17:36:57.609Z,11.70
2018-11-07T17:39:25.943Z,11.60
2018-11-07T17:41:54.315Z,11.60
2018-11-07T17:44:22.647Z,11.60
2018-11-07T17:46:50.985Z,11.60
2018-11-07T17:49:19.997Z,11.50
2018-11-07T17:51:48.431Z,11.50
2018-11-07T17:54:16.744Z,11.50
2018-11-07T17:56:45.172Z,11.50
2018-11-07T17:59:13.575Z,11.50
2018-11-07T18:01:41.915Z,11.40
2018-11-07T18:04:10.253Z,11.40
2018-11-07T18:06:38.621Z,11.40
2018-11-07T18:09:07.709Z,11.30
2018-11-07T18:11:37.287Z,11.40
2018-11-07T18:14:06.056Z,11.30
2018-11-07T18:16:34.443Z,11.30
2018-11-07T18:19:03.198Z,11.30
2018-11-07T18:21:32.019Z,11.20
2018-11-07T18:24:00.433Z,11.20
2018-11-07T18:26:28.868Z,11.20
2018-11-07T18:28:57.293Z,11.20
2018-11-07T18:31:25.689Z,11.20
2018-11-07T18:33:54.091Z,11.20
2018-11-07T18:36:22.469Z,11.20
2018-11-07T18:38:51.495Z,11.20
2018-11-07T18:41:19.900Z,11.10
2018-11-07T18:43:48.252Z,11.10
2018-11-07T18:46:16.644Z,11.20
2018-11-07T18:48:45.093Z,11.10
2018-11-07T18:51:13.466Z,11.10
2018-11-07T18:53:41.908Z,11.00
2018-11-07T18:56:10.325Z,11.00
2018-11-07T18:58:38.856Z,11.00
2018-11-07T19:01:07.603Z,11.00
2018-11-07T19:03:36.125Z,11.00
2018-11-07T19:06:10.975Z,11.00
2018-11-07T19:08:39.453Z,11.00
2018-11-07T19:11:07.858Z,11.00
2018-11-07T19:13:36.252Z,10.90
2018-11-07T19:16:04.664Z,11.00
2018-11-07T19:18:33.089Z,10.90
2018-11-07T19:21:01.636Z,11.00
2018-11-07T19:23:30.437Z,10.90
2018-11-07T19:25:59.589Z,10.90
2018-11-07T19:28:28.020Z,10.90
2018-11-07T19:30:56.569Z,10.90
2018-11-07T19:33:25.011Z,10.90
2018-11-07T19:35:53.724Z,10.90
2018-11-07T19:38:22.180Z,10.90
2018-11-07T19:40:51.439Z,10.90
2018-11-07T19:43:20.879Z,10.90
2018-11-07T19:45:49.353Z,10.80
2018-11-07T19:48:18.477Z,10.90
2018-11-07T19:50:46.938Z,10.90
2018-11-07T19:53:15.438Z,10.90
2018-11-07T19:55:44.819Z,11.00
2018-11-07T19:58:13.292Z,11.00
2018-11-07T20:00:42.432Z,11.00
2018-11-07T20:03:10.837Z,11.00
2018-11-07T20:05:41.142Z,11.00
2018-11-07T20:08:09.609Z,11.00
2018-11-07T20:10:40.822Z,11.00
2018-11-07T20:13:09.720Z,11.00
2018-11-07T20:15:38.186Z,11.00
2018-11-07T20:18:06.724Z,11.00
2018-11-07T20:20:35.189Z,11.00
2018-11-07T20:23:03.787Z,11.00
2018-11-07T20:25:32.315Z,11.00
2018-11-07T20:28:01.880Z,11.00
2018-11-07T20:30:30.499Z,11.00
2018-11-07T20:32:59.013Z,11.00
2018-11-07T20:35:27.543Z,11.00
2018-11-07T20:37:56.259Z,11.00
2018-11-07T20:40:25.038Z,11.00
2018-11-07T20:42:54.532Z,11.00
2018-11-07T20:45:23.484Z,11.00
2018-11-07T20:47:52.755Z,11.00
2018-11-07T20:50:22.211Z,11.00
2018-11-07T20:52:51.026Z,11.00
2018-11-07T20:55:19.506Z,11.10
2018-11-07T20:57:48.312Z,11.10
2018-11-07T21:00:19.061Z,11.20
2018-11-07T21:02:48.691Z,11.10
2018-11-07T21:05:18.056Z,11.10
2018-11-07T21:07:46.505Z,11.10
2018-11-07T21:10:16.489Z,11.10
2018-11-07T21:12:45.461Z,11.10
2018-11-07T21:15:15.106Z,11.00
2018-11-07T21:17:44.170Z,11.00
2018-11-07T21:20:13.183Z,11.00
2018-11-07T21:22:42.807Z,11.00
2018-11-07T21:25:11.789Z,11.00
2018-11-07T21:27:40.280Z,10.90
2018-11-07T21:30:12.090Z,10.90
2018-11-07T21:32:41.923Z,11.00
2018-11-07T21:35:10.677Z,11.00
2018-11-07T21:37:39.215Z,11.00
2018-11-07T21:40:09.372Z,11.10
2018-11-07T21:42:37.990Z,11.10
2018-11-07T21:45:08.422Z,11.10
2018-11-07T21:47:37.213Z,11.10
2018-11-07T21:50:07.115Z,11.00
2018-11-07T21:52:35.537Z,10.90
2018-11-07T21:55:04.247Z,10.90
2018-11-07T21:57:32.633Z,10.90
2018-11-07T22:00:01.045Z,10.80
2018-11-07T22:02:29.371Z,10.80
2018-11-07T22:04:57.665Z,10.80
2018-11-07T22:07:26.022Z,10.80
2018-11-07T22:09:54.377Z,10.80
2018-11-07T22:12:22.747Z,10.70
2018-11-07T22:14:51.211Z,10.70
2018-11-07T22:17:19.546Z,10.70
2018-11-07T22:19:47.940Z,10.70
2018-11-07T22:22:16.278Z,10.80
2018-11-07T22:24:44.584Z,10.80
2018-11-07T22:27:12.918Z,10.80
2018-11-07T22:29:41.232Z,10.90
2018-11-07T22:32:09.558Z,10.90
2018-11-07T22:34:37.862Z,10.90
2018-11-07T22:37:06.220Z,10.90
2018-11-07T22:39:34.533Z,10.90
2018-11-07T22:42:02.833Z,10.90
2018-11-07T22:44:31.108Z,10.90
2018-11-07T22:46:59.454Z,11.00
2018-11-07T22:49:27.770Z,11.00
2018-11-07T22:51:56.070Z,10.90
2018-11-07T22:54:24.388Z,11.00
2018-11-07T22:56:52.679Z,11.00
2018-11-07T22:59:20.981Z,11.00
2018-11-07T23:01:49.282Z,11.00
2018-11-07T23:04:17.566Z,11.00
2018-11-07T23:06:45.849Z,11.00
2018-11-07T23:09:14.849Z,11.00
2018-11-07T23:11:44.382Z,11.00
2018-11-07T23:14:13.867Z,11.00
2018-11-07T23:16:43.009Z,11.00
2018-11-07T23:19:12.239Z,11.00
2018-11-07T23:21:40.524Z,11.00
2018-11-07T23:24:09.138Z,11.00
2018-11-07T23:26:37.458Z,11.00
2018-11-07T23:29:05.796Z,11.00
2018-11-07T23:31:34.116Z,11.00
2018-11-07T23:34:02.892Z,11.00
2018-11-07T23:36:31.252Z,11.00
2018-11-07T23:38:59.750Z,11.00
2018-11-07T23:41:28.082Z,11.00
2018-11-07T23:43:56.370Z,11.00
2018-11-07T23:46:24.706Z,11.00
2018-11-07T23:48:53.035Z,11.00
2018-11-07T23:51:21.342Z,11.00
2018-11-07T23:53:49.636Z,11.00
2018-11-07T23:56:17.927Z,11.00
2018-11-07T23:58:46.251Z,11.00
